createdAt,value
2022-12-03T00:01:24.035Z,26.20
2022-12-03T00:03:55.530Z,24.30
2022-12-03T00:06:27.994Z,25.30
2022-12-03T00:08:58.228Z,25.60
2022-12-03T00:11:29.839Z,24.80
2022-12-03T00:14:02.314Z,24.37
2022-12-03T00:16:32.881Z,26.37
2022-12-03T00:19:06.798Z,24.67
2022-12-03T00:21:37.594Z,23.73
2022-12-03T00:24:10.084Z,24.97
2022-12-03T00:26:42.121Z,21.90
2022-12-03T00:29:15.644Z,22.67
2022-12-03T00:31:47.083Z,22.80
2022-12-03T00:34:17.750Z,24.40
2022-12-03T00:36:48.794Z,23.83
2022-12-03T00:39:19.454Z,25.57
2022-12-03T00:41:50.049Z,22.70
2022-12-03T00:44:20.727Z,24.37
2022-12-03T00:46:51.857Z,25.57
2022-12-03T00:49:22.911Z,25.03
2022-12-03T00:51:53.324Z,23.47
2022-12-03T00:54:29.964Z,26.53
2022-12-03T00:56:58.412Z,26.67
2022-12-03T00:59:29.092Z,23.07
2022-12-03T01:01:59.775Z,25.63
2022-12-03T01:04:32.179Z,27.50
2022-12-03T01:07:03.184Z,25.67
2022-12-03T01:09:35.443Z,26.90
2022-12-03T01:12:06.285Z,24.23
2022-12-03T01:14:38.084Z,25.97
2022-12-03T01:17:08.758Z,26.50
2022-12-03T01:19:44.986Z,27.17
2022-12-03T01:22:14.334Z,25.03
2022-12-03T01:24:44.856Z,24.50
2022-12-03T01:27:15.859Z,26.40
2022-12-03T01:29:46.533Z,27.57
2022-12-03T01:32:18.144Z,27.23
2022-12-03T01:34:53.297Z,24.93
2022-12-03T01:37:26.811Z,27.57
2022-12-03T01:39:58.870Z,26.83
2022-12-03T01:42:32.794Z,24.33
2022-12-03T01:45:04.712Z,25.43
2022-12-03T01:47:38.136Z,26.80
2022-12-03T01:50:14.451Z,27.70
2022-12-03T01:52:45.289Z,25.37
2022-12-03T01:55:19.180Z,28.47
2022-12-03T01:57:57.830Z,27.43
2022-12-03T02:00:29.547Z,25.33
2022-12-03T02:03:03.044Z,25.03
2022-12-03T02:05:35.016Z,22.87
2022-12-03T02:08:37.654Z,26.43
2022-12-03T02:11:32.616Z,25.83
2022-12-03T02:14:06.117Z,23.70
2022-12-03T02:16:38.660Z,27.77
2022-12-03T02:19:12.171Z,27.73
2022-12-03T02:22:04.232Z,24.87
2022-12-03T02:24:56.517Z,26.37
2022-12-03T02:27:29.246Z,25.97
2022-12-03T02:30:00.753Z,26.17
2022-12-03T02:32:31.430Z,25.13
2022-12-03T02:35:02.138Z,25.17
2022-12-03T02:37:35.908Z,25.37
2022-12-03T02:40:12.658Z,26.43
2022-12-03T02:42:45.208Z,25.20
2022-12-03T02:45:24.750Z,25.93
2022-12-03T02:48:13.479Z,26.40
2022-12-03T02:50:46.790Z,26.37
2022-12-03T02:53:21.502Z,24.37
2022-12-03T02:55:53.896Z,21.40
2022-12-03T02:58:26.334Z,23.07
2022-12-03T03:00:57.211Z,25.63
2022-12-03T03:03:30.581Z,25.53
2022-12-03T03:06:03.287Z,24.87
2022-12-03T03:08:34.219Z,23.73
2022-12-03T03:11:05.154Z,26.13
2022-12-03T03:13:36.817Z,26.47
2022-12-03T03:16:10.308Z,26.33
2022-12-03T03:18:42.021Z,27.43
2022-12-03T03:21:14.112Z,26.57
2022-12-03T03:23:44.594Z,25.87
2022-12-03T03:26:16.577Z,21.50
2022-12-03T03:28:50.027Z,23.20
2022-12-03T03:31:23.920Z,27.37
2022-12-03T03:33:54.670Z,24.20
2022-12-03T03:36:26.889Z,26.27
2022-12-03T03:38:59.011Z,26.13
2022-12-03T03:41:30.448Z,26.30
2022-12-03T03:44:02.279Z,26.33
2022-12-03T03:46:33.619Z,27.43
2022-12-03T03:49:06.442Z,27.07
2022-12-03T03:51:37.816Z,27.30
2022-12-03T03:54:09.510Z,27.60
2022-12-03T03:56:40.781Z,25.90
2022-12-03T03:59:11.380Z,26.30
2022-12-03T04:01:42.467Z,27.30
2022-12-03T04:04:19.835Z,25.07
2022-12-03T04:06:50.772Z,27.50
2022-12-03T04:09:21.454Z,27.87
2022-12-03T04:12:09.942Z,27.50
2022-12-03T04:14:41.683Z,26.30
2022-12-03T04:17:13.356Z,25.67
2022-12-03T04:19:43.929Z,25.60
2022-12-03T04:22:33.999Z,26.67
2022-12-03T04:25:24.650Z,25.10
2022-12-03T04:28:13.592Z,23.73
2022-12-03T04:30:44.194Z,25.57
2022-12-03T04:33:25.618Z,26.37
2022-12-03T04:35:56.513Z,26.33
2022-12-03T04:38:28.007Z,26.73
2022-12-03T04:41:01.258Z,25.80
2022-12-03T04:43:34.714Z,25.67
2022-12-03T04:46:05.327Z,27.07
2022-12-03T04:48:35.950Z,27.37
2022-12-03T04:51:08.012Z,26.60
2022-12-03T04:53:43.234Z,26.87
2022-12-03T04:56:10.706Z,25.93
2022-12-03T04:58:41.138Z,26.83
2022-12-03T05:01:13.997Z,27.20
2022-12-03T05:03:44.523Z,25.63
2022-12-03T05:06:16.760Z,26.00
2022-12-03T05:08:48.291Z,26.60
2022-12-03T05:11:19.993Z,25.17
2022-12-03T05:13:52.399Z,24.97
2022-12-03T05:16:23.473Z,26.27
2022-12-03T05:18:53.999Z,26.13
2022-12-03T05:21:24.983Z,27.07
2022-12-03T05:23:55.557Z,26.23
2022-12-03T05:26:26.549Z,27.47
2022-12-03T05:28:57.082Z,26.97
2022-12-03T05:31:29.654Z,28.10
2022-12-03T05:34:00.197Z,26.53
2022-12-03T05:36:31.136Z,27.07
2022-12-03T05:39:02.338Z,27.93
2022-12-03T05:41:50.815Z,27.40
2022-12-03T05:44:21.378Z,27.03
2022-12-03T05:46:51.976Z,27.30
2022-12-03T05:49:22.934Z,26.57
2022-12-03T05:51:58.271Z,28.20
2022-12-03T05:54:26.139Z,27.43
2022-12-03T05:56:58.206Z,28.83
2022-12-03T05:59:28.837Z,27.60
2022-12-03T06:02:00.731Z,26.83
2022-12-03T06:04:31.499Z,28.43
2022-12-03T06:07:02.165Z,27.37
2022-12-03T06:09:32.622Z,28.80
2022-12-03T06:12:03.146Z,27.53
2022-12-03T06:14:37.655Z,28.90
2022-12-03T06:17:08.380Z,28.07
2022-12-03T06:19:40.058Z,26.50
2022-12-03T06:22:10.668Z,28.90
2022-12-03T06:24:41.339Z,27.90
2022-12-03T06:27:15.588Z,28.87
2022-12-03T06:29:46.067Z,28.33
2022-12-03T06:32:16.944Z,29.70
2022-12-03T06:34:49.366Z,28.33
2022-12-03T06:37:19.825Z,28.40
2022-12-03T06:39:50.388Z,27.40
2022-12-03T06:42:22.518Z,30.97
2022-12-03T06:44:53.412Z,27.47
2022-12-03T06:47:24.297Z,27.47
2022-12-03T06:49:54.821Z,25.57
2022-12-03T06:52:25.370Z,26.87
2022-12-03T06:54:56.148Z,28.63
2022-12-03T06:57:27.024Z,28.07
2022-12-03T06:59:57.691Z,27.50
2022-12-03T07:02:29.788Z,30.43
2022-12-03T07:05:00.211Z,29.27
2022-12-03T07:07:30.912Z,28.03
2022-12-03T07:10:01.402Z,27.47
2022-12-03T07:12:33.929Z,28.80
2022-12-03T07:15:05.988Z,29.00
2022-12-03T07:17:36.637Z,28.83
2022-12-03T07:20:09.925Z,28.47
2022-12-03T07:22:40.307Z,28.80
2022-12-03T07:25:16.776Z,30.03
2022-12-03T07:27:46.952Z,29.77
2022-12-03T07:30:17.721Z,29.50
2022-12-03T07:32:48.484Z,29.10
2022-12-03T07:35:21.069Z,29.90
2022-12-03T07:37:51.518Z,30.17
2022-12-03T07:40:22.206Z,29.53
2022-12-03T07:42:52.653Z,29.20
2022-12-03T07:45:25.277Z,31.07
2022-12-03T07:47:56.135Z,30.63
2022-12-03T07:50:28.335Z,29.07
2022-12-03T07:53:00.276Z,29.23
2022-12-03T07:55:30.881Z,30.10
2022-12-03T07:58:01.703Z,30.87
2022-12-03T08:00:32.450Z,29.27
2022-12-03T08:03:04.606Z,30.43
2022-12-03T08:05:35.194Z,29.70
2022-12-03T08:08:07.387Z,29.80
2022-12-03T08:10:38.632Z,30.57
2022-12-03T08:13:15.799Z,28.93
2022-12-03T08:15:47.249Z,25.60
2022-12-03T08:18:22.893Z,29.47
2022-12-03T08:20:55.983Z,29.80
2022-12-03T08:23:30.465Z,25.97
2022-12-03T08:26:03.787Z,29.83
2022-12-03T08:28:35.676Z,28.10
2022-12-03T08:31:16.993Z,29.33
2022-12-03T08:33:49.921Z,29.07
2022-12-03T08:36:31.466Z,30.33
2022-12-03T08:39:05.348Z,28.33
2022-12-03T08:41:57.007Z,27.90
2022-12-03T08:44:37.608Z,29.07
2022-12-03T08:47:27.445Z,28.60
2022-12-03T08:50:02.770Z,29.30
2022-12-03T08:52:38.606Z,29.67
2022-12-03T08:55:33.465Z,29.67
2022-12-03T08:58:45.790Z,28.63
2022-12-03T09:01:34.614Z,28.17
2022-12-03T09:04:42.938Z,30.13
2022-12-03T09:07:17.339Z,29.67
2022-12-03T09:09:49.838Z,29.37
2022-12-03T09:12:20.709Z,30.67
2022-12-03T09:14:52.787Z,30.83
2022-12-03T09:17:23.986Z,29.50
2022-12-03T09:19:56.557Z,29.40
2022-12-03T09:22:29.060Z,29.90
2022-12-03T09:25:03.405Z,31.13
2022-12-03T09:27:39.824Z,28.07
2022-12-03T09:30:10.829Z,30.33
2022-12-03T09:32:43.873Z,30.13
2022-12-03T09:35:14.776Z,30.70
2022-12-03T09:37:46.755Z,31.60
2022-12-03T09:40:19.932Z,29.97
2022-12-03T09:42:52.420Z,28.70
2022-12-03T09:45:24.045Z,28.10
2022-12-03T09:47:55.627Z,27.90
2022-12-03T09:50:28.687Z,28.67
2022-12-03T09:53:04.040Z,28.17
2022-12-03T09:55:37.206Z,27.43
2022-12-03T09:58:17.819Z,27.17
2022-12-03T10:00:50.752Z,28.70
2022-12-03T10:03:29.695Z,29.57
2022-12-03T10:05:57.564Z,27.63
2022-12-03T10:08:32.155Z,29.53
2022-12-03T10:11:03.338Z,28.80
2022-12-03T10:13:37.174Z,29.43
2022-12-03T10:16:16.879Z,30.13
2022-12-03T10:18:54.343Z,27.37
2022-12-03T10:21:28.101Z,29.07
2022-12-03T10:24:25.742Z,26.87
2022-12-03T10:27:02.362Z,28.17
2022-12-03T10:29:36.976Z,27.37
2022-12-03T10:32:10.329Z,28.87
2022-12-03T10:34:43.856Z,27.77
2022-12-03T10:37:22.924Z,27.50
2022-12-03T10:39:59.659Z,27.47
2022-12-03T10:42:33.132Z,26.60
2022-12-03T10:45:18.556Z,28.00
2022-12-03T10:48:05.236Z,27.90
2022-12-03T10:50:37.685Z,28.43
2022-12-03T10:53:10.703Z,28.40
2022-12-03T10:55:44.891Z,29.37
2022-12-03T10:58:28.408Z,29.07
2022-12-03T11:01:04.026Z,28.30
2022-12-03T11:03:37.572Z,26.97
2022-12-03T11:06:10.023Z,28.50
2022-12-03T11:08:45.243Z,24.50
2022-12-03T11:11:26.902Z,25.93
2022-12-03T11:14:02.346Z,26.23
2022-12-03T11:16:45.232Z,27.00
2022-12-03T11:19:38.919Z,27.17
2022-12-03T11:22:12.422Z,26.93
2022-12-03T11:24:46.438Z,28.70
2022-12-03T11:27:20.934Z,26.60
2022-12-03T11:29:54.587Z,26.83
2022-12-03T11:32:40.562Z,27.27
2022-12-03T11:35:18.188Z,27.10
2022-12-03T11:37:48.614Z,27.00
2022-12-03T11:40:22.264Z,25.87
2022-12-03T11:42:54.668Z,28.33
2022-12-03T11:45:38.857Z,27.03
2022-12-03T11:48:16.970Z,26.50
2022-12-03T11:50:55.100Z,27.67
2022-12-03T11:53:27.921Z,25.47
2022-12-03T11:56:08.645Z,26.73
2022-12-03T11:58:42.327Z,26.37
2022-12-03T12:01:14.576Z,25.57
2022-12-03T12:03:47.870Z,26.47
2022-12-03T12:06:21.212Z,25.90
2022-12-03T12:08:59.893Z,26.17
2022-12-03T12:11:36.517Z,24.57
2022-12-03T12:14:12.124Z,26.30
2022-12-03T12:16:55.474Z,27.17
2022-12-03T12:19:32.228Z,24.30
2022-12-03T12:22:20.725Z,26.87
2022-12-03T12:24:54.340Z,26.83
2022-12-03T12:27:34.254Z,28.63
2022-12-03T12:30:15.655Z,26.73
2022-12-03T12:32:49.097Z,28.37
2022-12-03T12:35:27.964Z,26.10
2022-12-03T12:38:12.696Z,27.30
2022-12-03T12:40:45.715Z,26.67
2022-12-03T12:43:28.746Z,25.57
2022-12-03T12:46:18.647Z,26.57
2022-12-03T12:48:35.865Z,26.13
2022-12-03T12:51:15.230Z,27.23
2022-12-03T12:53:46.136Z,26.93
2022-12-03T12:56:28.308Z,27.23
2022-12-03T12:59:01.911Z,26.43
2022-12-03T13:01:35.110Z,25.73
2022-12-03T13:04:14.875Z,26.17
2022-12-03T13:06:48.068Z,26.60
2022-12-03T13:09:51.524Z,24.43
2022-12-03T13:12:24.832Z,24.97
2022-12-03T13:14:59.776Z,27.37
2022-12-03T13:17:32.249Z,25.23
2022-12-03T13:20:08.055Z,26.00
2022-12-03T13:22:38.206Z,26.67
2022-12-03T13:25:57.784Z,25.73
2022-12-03T13:28:03.100Z,24.97
2022-12-03T13:30:34.808Z,25.03
2022-12-03T13:33:09.062Z,24.40
2022-12-03T13:35:42.741Z,25.13
2022-12-03T13:38:17.741Z,24.83
2022-12-03T13:40:55.192Z,25.53
2022-12-03T13:43:28.900Z,26.03
2022-12-03T13:46:03.144Z,25.03
2022-12-03T13:48:36.447Z,25.57
2022-12-03T13:51:31.413Z,24.23
2022-12-03T13:54:05.858Z,24.77
2022-12-03T13:56:38.752Z,24.50
2022-12-03T13:59:09.293Z,25.63
2022-12-03T14:01:40.205Z,22.97
2022-12-03T14:04:12.582Z,24.93
2022-12-03T14:06:46.206Z,25.90
2022-12-03T14:09:20.747Z,24.40
2022-12-03T14:12:10.816Z,24.63
2022-12-03T14:14:43.005Z,24.83
2022-12-03T14:17:14.845Z,34.57
2022-12-03T14:19:46.117Z,34.40
2022-12-03T14:22:18.585Z,26.80
2022-12-03T14:24:51.443Z,26.60
2022-12-03T14:27:22.510Z,25.03
2022-12-03T14:29:53.795Z,27.00
2022-12-03T14:32:25.370Z,24.43
2022-12-03T14:34:56.720Z,26.63
2022-12-03T14:37:27.419Z,25.93
2022-12-03T14:39:58.283Z,22.57
2022-12-03T14:42:30.963Z,23.90
2022-12-03T14:45:03.135Z,22.97
2022-12-03T14:47:33.763Z,23.13
2022-12-03T14:50:07.128Z,25.00
2022-12-03T14:52:39.185Z,23.80
2022-12-03T14:55:10.015Z,22.53
2022-12-03T14:58:13.930Z,23.23
2022-12-03T15:00:45.333Z,23.17
2022-12-03T15:03:17.565Z,23.13
2022-12-03T15:05:48.175Z,25.00
2022-12-03T15:08:19.605Z,22.63
2022-12-03T15:10:55.118Z,23.40
2022-12-03T15:13:23.084Z,24.03
2022-12-03T15:15:53.879Z,22.70
2022-12-03T15:18:25.738Z,22.20
2022-12-03T15:20:56.440Z,20.50
2022-12-03T15:23:30.191Z,22.77
2022-12-03T15:26:00.765Z,23.67
2022-12-03T15:28:31.276Z,24.63
2022-12-03T15:31:02.924Z,23.10
2022-12-03T15:33:33.830Z,23.63
2022-12-03T15:36:06.117Z,23.13
2022-12-03T15:38:37.209Z,23.67
2022-12-03T15:41:25.626Z,23.70
2022-12-03T15:44:01.915Z,22.93
2022-12-03T15:46:37.361Z,24.33
2022-12-03T15:49:09.057Z,22.93
2022-12-03T15:51:39.748Z,24.57
2022-12-03T15:54:12.370Z,24.57
2022-12-03T15:56:45.699Z,24.40
2022-12-03T15:59:19.946Z,24.00
2022-12-03T16:01:51.680Z,25.00
2022-12-03T16:04:22.453Z,26.13
2022-12-03T16:06:54.186Z,25.73
2022-12-03T16:09:27.405Z,24.73
2022-12-03T16:11:57.675Z,24.70
2022-12-03T16:14:28.531Z,26.30
2022-12-03T16:17:03.006Z,25.83
2022-12-03T16:19:35.968Z,24.67
2022-12-03T16:22:09.374Z,25.37
2022-12-03T16:24:41.763Z,25.77
2022-12-03T16:27:13.491Z,26.23
2022-12-03T16:29:45.776Z,25.90
2022-12-03T16:32:16.520Z,23.13
2022-12-03T16:34:47.112Z,24.17
2022-12-03T16:37:20.711Z,24.37
2022-12-03T16:39:51.527Z,25.73
2022-12-03T16:42:24.860Z,24.37
2022-12-03T16:45:05.800Z,24.93
2022-12-03T16:47:38.132Z,26.30
2022-12-03T16:50:19.838Z,22.53
2022-12-03T16:52:45.828Z,25.70
2022-12-03T16:55:17.906Z,24.77
2022-12-03T16:57:52.712Z,25.50
2022-12-03T17:00:25.712Z,26.40
2022-12-03T17:02:58.624Z,25.90
2022-12-03T17:05:28.846Z,24.80
2022-12-03T17:07:59.983Z,26.17
2022-12-03T17:10:31.366Z,25.03
2022-12-03T17:13:09.665Z,25.43
2022-12-03T17:15:37.401Z,26.83
2022-12-03T17:18:10.416Z,26.77
2022-12-03T17:20:42.701Z,26.10
2022-12-03T17:23:13.877Z,25.67
2022-12-03T17:25:44.459Z,26.67
2022-12-03T17:28:15.274Z,26.80
2022-12-03T17:30:48.069Z,24.40
2022-12-03T17:33:18.711Z,26.37
2022-12-03T17:35:50.673Z,25.47
2022-12-03T17:38:24.752Z,26.27
2022-12-03T17:40:55.247Z,27.13
2022-12-03T17:43:26.916Z,25.50
2022-12-03T17:45:57.601Z,25.87
2022-12-03T17:48:31.239Z,30.07
2022-12-03T17:51:01.817Z,25.37
2022-12-03T17:53:36.542Z,26.50
2022-12-03T17:56:07.434Z,26.40
2022-12-03T17:58:40.622Z,25.60
2022-12-03T18:01:11.801Z,26.73
2022-12-03T18:03:45.911Z,25.57
2022-12-03T18:06:16.099Z,26.90
2022-12-03T18:08:47.904Z,25.57
2022-12-03T18:11:18.810Z,27.07
2022-12-03T18:13:50.787Z,27.73
2022-12-03T18:16:21.442Z,29.23
2022-12-03T18:18:56.663Z,28.43
2022-12-03T18:21:27.206Z,26.90
2022-12-03T18:24:01.111Z,27.40
2022-12-03T18:26:35.804Z,26.40
2022-12-03T18:29:10.260Z,28.87
2022-12-03T18:31:41.235Z,27.03
2022-12-03T18:34:13.665Z,27.13
2022-12-03T18:36:44.645Z,24.23
2022-12-03T18:39:30.884Z,27.73
2022-12-03T18:42:05.885Z,27.80
2022-12-03T18:44:38.671Z,26.43
2022-12-03T18:47:19.549Z,27.87
2022-12-03T18:49:50.986Z,27.57
2022-12-03T18:52:26.025Z,27.63
2022-12-03T18:54:56.509Z,29.60
2022-12-03T18:57:32.240Z,28.40
2022-12-03T19:00:02.916Z,29.40
2022-12-03T19:03:05.013Z,28.73
2022-12-03T19:05:09.097Z,27.17
2022-12-03T19:07:39.932Z,28.83
2022-12-03T19:10:21.333Z,29.23
2022-12-03T19:12:55.949Z,28.97
2022-12-03T19:15:27.836Z,28.23
2022-12-03T19:17:58.492Z,29.97
2022-12-03T19:20:30.191Z,29.60
2022-12-03T19:23:02.133Z,29.43
2022-12-03T19:25:32.602Z,29.97
2022-12-03T19:28:04.277Z,30.23
2022-12-03T19:30:35.182Z,28.50
2022-12-03T19:33:09.248Z,30.23
2022-12-03T19:35:44.250Z,30.00
2022-12-03T19:38:14.901Z,30.47
2022-12-03T19:41:02.665Z,30.73
2022-12-03T19:43:34.766Z,31.97
2022-12-03T19:46:10.114Z,29.80
2022-12-03T19:48:44.613Z,31.20
2022-12-03T19:51:35.426Z,29.70
2022-12-03T19:53:50.653Z,30.37
2022-12-03T19:56:24.554Z,30.70
2022-12-03T19:58:56.146Z,30.33
2022-12-03T20:01:29.806Z,29.40
2022-12-03T20:04:02.762Z,29.97
2022-12-03T20:06:37.392Z,30.57
2022-12-03T20:09:13.358Z,32.10
2022-12-03T20:11:45.632Z,31.60
2022-12-03T20:14:18.812Z,30.03
2022-12-03T20:16:49.438Z,31.57
2022-12-03T20:19:22.499Z,32.17
2022-12-03T20:21:56.279Z,29.57
2022-12-03T20:24:25.328Z,31.70
2022-12-03T20:26:55.923Z,32.20
2022-12-03T20:29:26.540Z,32.93
2022-12-03T20:32:02.361Z,33.00
2022-12-03T20:34:34.866Z,39.17
2022-12-03T20:37:06.393Z,32.30
2022-12-03T20:39:38.894Z,30.90
2022-12-03T20:42:13.556Z,32.50
2022-12-03T20:44:45.786Z,31.93
2022-12-03T20:47:17.324Z,30.80
2022-12-03T20:49:49.233Z,31.80
2022-12-03T20:52:19.801Z,32.10
2022-12-03T20:54:50.487Z,31.40
2022-12-03T20:57:22.039Z,29.87
2022-12-03T20:59:56.051Z,31.50
2022-12-03T21:02:26.660Z,29.53
2022-12-03T21:04:58.681Z,30.97
2022-12-03T21:07:30.822Z,32.20
2022-12-03T21:10:01.451Z,30.10
2022-12-03T21:12:32.077Z,31.93
2022-12-03T21:15:06.272Z,32.20
2022-12-03T21:17:40.424Z,30.88
2022-12-03T21:20:20.642Z,32.27
2022-12-03T21:22:54.272Z,33.10
2022-12-03T21:25:25.929Z,33.30
2022-12-03T21:27:58.882Z,33.17
2022-12-03T21:30:29.469Z,32.80
2022-12-03T21:33:00.119Z,31.60
2022-12-03T21:35:31.540Z,32.17
2022-12-03T21:38:02.050Z,33.00
2022-12-03T21:40:33.768Z,30.37
2022-12-03T21:43:04.280Z,33.10
2022-12-03T21:45:34.755Z,31.27
2022-12-03T21:48:05.255Z,33.03
2022-12-03T21:50:36.042Z,32.67
2022-12-03T21:53:06.624Z,31.50
2022-12-03T21:55:42.041Z,30.80
2022-12-03T21:58:12.771Z,33.40
2022-12-03T22:00:43.357Z,32.37
2022-12-03T22:03:13.974Z,33.90
2022-12-03T22:08:47.199Z,32.00
2022-12-03T22:11:21.075Z,35.43
2022-12-03T22:13:51.641Z,32.50
2022-12-03T22:16:23.058Z,33.20
2022-12-03T22:18:55.380Z,33.00
2022-12-03T22:21:28.725Z,33.67
2022-12-03T22:23:59.249Z,32.53
2022-12-03T22:26:35.122Z,32.70
2022-12-03T22:29:06.097Z,33.17
2022-12-03T22:31:39.013Z,34.07
2022-12-03T22:34:09.607Z,33.30
2022-12-03T22:36:41.130Z,31.17
2022-12-03T22:39:13.165Z,32.60
2022-12-03T22:41:45.539Z,33.93
2022-12-03T22:44:17.961Z,33.70
2022-12-03T22:46:48.694Z,34.67
2022-12-03T22:49:19.455Z,33.17
2022-12-03T22:51:50.876Z,35.80
2022-12-03T22:54:24.092Z,33.90
2022-12-03T22:56:54.212Z,33.90
2022-12-03T22:59:25.869Z,34.27
2022-12-03T23:01:56.372Z,34.00
2022-12-03T23:04:27.359Z,34.10
2022-12-03T23:06:58.255Z,31.60
2022-12-03T23:09:28.820Z,34.10
2022-12-03T23:12:01.943Z,33.60
2022-12-03T23:14:32.747Z,32.97
2022-12-03T23:17:03.408Z,35.13
2022-12-03T23:19:35.357Z,35.80
2022-12-03T23:22:05.906Z,35.47
2022-12-03T23:24:37.066Z,34.47
2022-12-03T23:27:07.595Z,34.33
2022-12-03T23:29:37.974Z,35.03
2022-12-03T23:32:09.964Z,35.43
2022-12-03T23:34:41.892Z,32.83
2022-12-03T23:37:13.596Z,34.37
2022-12-03T23:39:44.476Z,34.43
2022-12-03T23:42:15.493Z,35.03
2022-12-03T23:44:47.671Z,35.33
2022-12-03T23:47:21.301Z,33.60
2022-12-03T23:49:51.845Z,33.77
2022-12-03T23:52:24.153Z,36.43
2022-12-03T23:54:54.544Z,34.90
2022-12-03T23:57:25.155Z,33.90
2022-12-03T23:59:56.103Z,35.90
